createdAt,value
2023-02-27T00:01:50.910Z,0.80
2023-02-27T00:04:18.779Z,0.67
2023-02-27T00:06:45.265Z,0.90
2023-02-27T00:09:11.765Z,1.10
2023-02-27T00:11:38.292Z,0.90
2023-02-27T00:14:04.877Z,0.90
2023-02-27T00:16:31.416Z,1.00
2023-02-27T00:18:57.954Z,1.30
2023-02-27T00:21:26.136Z,0.90
2023-02-27T00:23:52.854Z,1.10
2023-02-27T00:26:19.341Z,1.10
2023-02-27T00:28:45.879Z,1.00
2023-02-27T00:31:12.500Z,0.83
2023-02-27T00:33:39.054Z,0.93
2023-02-27T00:36:06.172Z,0.70
2023-02-27T00:38:35.160Z,0.90
2023-02-27T00:41:01.744Z,0.90
2023-02-27T00:43:28.303Z,0.70
2023-02-27T00:45:54.823Z,0.80
2023-02-27T00:48:21.378Z,0.70
2023-02-27T00:50:49.406Z,0.70
2023-02-27T00:53:16.012Z,0.80
2023-02-27T00:55:43.886Z,0.70
2023-02-27T00:58:10.402Z,0.70
2023-02-27T01:00:36.979Z,0.90
2023-02-27T01:03:03.554Z,0.90
2023-02-27T01:05:30.064Z,0.90
2023-02-27T01:07:56.542Z,1.23
2023-02-27T01:10:23.040Z,1.30
2023-02-27T01:12:50.929Z,1.33
2023-02-27T01:15:17.717Z,1.30
2023-02-27T01:17:44.385Z,1.50
2023-02-27T01:20:12.763Z,1.20
2023-02-27T01:22:39.672Z,1.70
2023-02-27T01:25:07.025Z,1.40
2023-02-27T01:27:33.538Z,1.93
2023-02-27T01:30:01.498Z,2.30
2023-02-27T01:32:28.246Z,2.57
2023-02-27T01:34:54.814Z,2.93
2023-02-27T01:37:21.334Z,3.77
2023-02-27T01:39:47.826Z,3.27
2023-02-27T01:42:20.254Z,3.30
2023-02-27T01:45:20.002Z,3.10
2023-02-27T01:47:50.836Z,3.93
2023-02-27T01:50:19.195Z,3.30
2023-02-27T01:52:51.469Z,3.20
2023-02-27T01:55:18.159Z,3.43
2023-02-27T01:57:46.440Z,3.03
2023-02-27T02:00:15.387Z,2.73
2023-02-27T02:02:45.376Z,3.40
2023-02-27T02:05:13.387Z,3.23
2023-02-27T02:07:41.935Z,3.20
2023-02-27T02:10:10.954Z,2.87
2023-02-27T02:12:38.932Z,3.40
2023-02-27T02:15:06.805Z,3.30
2023-02-27T02:17:41.739Z,3.50
2023-02-27T02:20:33.550Z,3.40
2023-02-27T02:23:29.909Z,3.20
2023-02-27T02:26:29.280Z,3.17
2023-02-27T02:29:28.684Z,3.03
2023-02-27T02:32:27.013Z,2.73
2023-02-27T02:35:36.294Z,3.40
2023-02-27T02:38:22.117Z,2.80
2023-02-27T02:40:52.557Z,2.77
2023-02-27T02:43:26.271Z,2.80
2023-02-27T02:46:01.682Z,2.80
2023-02-27T02:48:31.824Z,2.40
2023-02-27T02:51:04.228Z,2.53
2023-02-27T02:53:39.819Z,2.57
2023-02-27T02:56:10.681Z,2.73
2023-02-27T02:58:46.331Z,2.30
2023-02-27T03:01:15.757Z,2.53
2023-02-27T03:03:48.328Z,2.10
2023-02-27T03:06:19.106Z,2.33
2023-02-27T03:08:51.998Z,2.17
2023-02-27T03:11:18.578Z,2.13
2023-02-27T03:13:48.805Z,2.27
2023-02-27T03:16:22.153Z,2.47
2023-02-27T03:18:52.975Z,2.07
2023-02-27T03:21:24.328Z,2.20
2023-02-27T03:23:56.290Z,2.10
2023-02-27T03:26:29.438Z,2.03
2023-02-27T03:29:00.771Z,2.33
2023-02-27T03:31:33.130Z,2.13
2023-02-27T03:34:06.907Z,2.00
2023-02-27T03:36:39.337Z,2.27
2023-02-27T03:39:15.702Z,2.00
2023-02-27T03:41:52.375Z,1.80
2023-02-27T03:44:28.628Z,2.00
2023-02-27T03:46:55.373Z,2.03
2023-02-27T03:49:22.222Z,1.70
2023-02-27T03:51:48.978Z,1.70
2023-02-27T03:54:20.705Z,2.00
2023-02-27T03:56:51.530Z,2.13
2023-02-27T03:59:18.248Z,1.80
2023-02-27T04:01:45.360Z,1.60
2023-02-27T04:04:15.345Z,1.87
2023-02-27T04:06:46.006Z,1.60
2023-02-27T04:09:26.773Z,1.70
2023-02-27T04:12:08.661Z,1.90
2023-02-27T04:14:43.115Z,1.80
2023-02-27T04:17:19.801Z,1.77
2023-02-27T04:20:01.680Z,1.50
2023-02-27T04:22:34.151Z,1.80
2023-02-27T04:25:16.911Z,1.60
2023-02-27T04:27:50.970Z,1.37
2023-02-27T04:30:26.260Z,1.10
2023-02-27T04:32:57.296Z,1.33
2023-02-27T04:35:29.112Z,1.10
2023-02-27T04:38:00.561Z,1.07
2023-02-27T04:40:34.353Z,1.00
2023-02-27T04:43:03.846Z,0.93
2023-02-27T04:45:32.839Z,1.07
2023-02-27T04:48:03.407Z,1.10
2023-02-27T04:50:36.232Z,1.37
2023-02-27T04:53:06.940Z,1.50
2023-02-27T04:55:39.589Z,2.17
2023-02-27T04:58:11.068Z,2.17
2023-02-27T05:00:41.610Z,2.43
2023-02-27T05:03:14.199Z,2.20
2023-02-27T05:05:43.545Z,1.73
2023-02-27T05:08:16.827Z,1.73
2023-02-27T05:10:49.285Z,1.40
2023-02-27T05:13:19.516Z,1.20
2023-02-27T05:15:49.263Z,1.20
2023-02-27T05:18:18.722Z,1.30
2023-02-27T05:20:55.713Z,1.30
2023-02-27T05:23:30.262Z,1.17
2023-02-27T05:26:02.471Z,1.10
2023-02-27T05:28:35.095Z,1.30
2023-02-27T05:31:08.365Z,2.20
2023-02-27T05:33:38.644Z,2.83
2023-02-27T05:36:10.227Z,2.70
2023-02-27T05:38:40.539Z,2.70
2023-02-27T05:41:11.321Z,3.30
2023-02-27T05:43:42.145Z,4.87
2023-02-27T05:46:14.301Z,5.67
2023-02-27T05:48:44.381Z,9.40
2023-02-27T05:51:14.261Z,25.97
2023-02-27T05:53:46.054Z,23.63
2023-02-27T05:56:18.579Z,11.73
2023-02-27T05:58:49.907Z,7.17
2023-02-27T06:01:16.477Z,6.77
2023-02-27T06:03:43.412Z,4.77
2023-02-27T06:06:13.942Z,3.37
2023-02-27T06:08:40.481Z,2.30
2023-02-27T06:11:07.130Z,2.10
2023-02-27T06:13:34.989Z,2.63
2023-02-27T06:16:01.736Z,1.90
2023-02-27T06:18:28.272Z,2.13
2023-02-27T06:20:54.767Z,2.00
2023-02-27T06:23:21.275Z,1.93
2023-02-27T06:25:48.744Z,2.37
2023-02-27T06:28:15.555Z,2.20
2023-02-27T06:30:45.337Z,2.10
2023-02-27T06:33:12.821Z,2.00
2023-02-27T06:35:39.355Z,1.80
2023-02-27T06:38:05.895Z,1.97
2023-02-27T06:40:32.441Z,1.70
2023-02-27T06:42:58.974Z,1.80
2023-02-27T06:45:25.488Z,1.60
2023-02-27T06:47:53.366Z,1.87
2023-02-27T06:50:19.889Z,1.57
2023-02-27T06:52:46.435Z,1.63
2023-02-27T06:55:12.977Z,1.70
2023-02-27T06:57:39.508Z,1.40
2023-02-27T07:00:07.359Z,1.40
2023-02-27T07:02:33.901Z,1.40
2023-02-27T07:05:08.001Z,1.73
2023-02-27T07:07:37.814Z,1.80
2023-02-27T07:10:06.629Z,2.63
2023-02-27T07:12:33.197Z,3.00
2023-02-27T07:14:59.717Z,3.50
2023-02-27T07:17:26.248Z,3.03
2023-02-27T07:19:52.762Z,2.10
2023-02-27T07:22:20.614Z,2.00
2023-02-27T07:24:47.108Z,1.70
2023-02-27T07:27:13.638Z,3.33
2023-02-27T07:29:40.208Z,4.63
2023-02-27T07:32:06.785Z,3.50
2023-02-27T07:34:33.356Z,2.90
2023-02-27T07:36:59.892Z,2.30
2023-02-27T07:39:27.808Z,2.07
2023-02-27T07:41:54.340Z,1.80
2023-02-27T07:44:20.858Z,1.93
2023-02-27T07:46:47.455Z,1.83
2023-02-27T07:49:14.129Z,1.70
2023-02-27T07:51:40.629Z,1.40
2023-02-27T07:54:07.193Z,1.40
2023-02-27T07:56:35.067Z,1.90
2023-02-27T07:59:01.625Z,1.90
2023-02-27T08:01:28.158Z,1.67
2023-02-27T08:03:55.668Z,1.50
2023-02-27T08:06:22.297Z,1.20
2023-02-27T08:08:48.896Z,1.50
2023-02-27T08:11:15.446Z,1.47
2023-02-27T08:13:59.418Z,0.97
2023-02-27T08:16:27.211Z,1.50
2023-02-27T08:18:53.938Z,1.27
2023-02-27T08:21:20.421Z,1.30
2023-02-27T08:23:46.995Z,1.40
2023-02-27T08:26:13.612Z,1.10
2023-02-27T08:28:40.843Z,0.90
2023-02-27T08:31:08.857Z,2.00
2023-02-27T08:33:35.705Z,1.47
2023-02-27T08:36:02.578Z,1.20
2023-02-27T08:38:29.153Z,1.07
2023-02-27T08:40:55.691Z,0.97
2023-02-27T08:43:23.058Z,0.87
2023-02-27T08:45:50.423Z,0.90
2023-02-27T08:48:18.849Z,1.00
2023-02-27T08:50:46.450Z,0.80
2023-02-27T08:53:13.518Z,0.90
2023-02-27T08:55:40.244Z,0.90
2023-02-27T08:58:06.815Z,0.90
2023-02-27T09:00:33.354Z,0.70
2023-02-27T09:03:00.270Z,0.80
2023-02-27T09:05:28.448Z,0.60
2023-02-27T09:07:54.999Z,0.80
2023-02-27T09:10:21.477Z,0.80
2023-02-27T09:12:48.030Z,0.90
2023-02-27T09:15:14.574Z,1.00
2023-02-27T09:17:41.120Z,0.90
2023-02-27T09:20:09.051Z,0.80
2023-02-27T09:22:36.984Z,1.37
2023-02-27T09:25:03.997Z,0.80
2023-02-27T09:27:30.494Z,0.70
2023-02-27T09:29:57.184Z,0.90
2023-02-27T09:32:23.822Z,0.70
2023-02-27T09:34:50.465Z,0.93
2023-02-27T09:37:17.477Z,0.90
2023-02-27T09:39:46.434Z,0.70
2023-02-27T09:42:16.458Z,0.67
2023-02-27T09:44:47.536Z,0.80
2023-02-27T09:47:18.213Z,0.80
2023-02-27T09:49:55.834Z,0.70
2023-02-27T09:52:22.492Z,0.70
2023-02-27T09:54:50.557Z,0.80
2023-02-27T09:57:24.117Z,0.80
2023-02-27T09:59:54.728Z,1.00
2023-02-27T10:02:32.951Z,0.70
2023-02-27T10:05:06.554Z,0.70
2023-02-27T10:07:38.607Z,0.80
2023-02-27T10:10:16.953Z,0.70
2023-02-27T10:12:58.919Z,0.50
2023-02-27T10:15:27.639Z,0.63
2023-02-27T10:17:58.624Z,0.60
2023-02-27T10:20:28.909Z,0.60
2023-02-27T10:22:59.824Z,0.60
2023-02-27T10:25:32.099Z,0.63
2023-02-27T10:28:08.982Z,0.50
2023-02-27T10:30:36.346Z,0.50
2023-02-27T10:33:09.684Z,0.30
2023-02-27T10:35:38.828Z,0.60
2023-02-27T10:38:11.280Z,0.80
2023-02-27T10:40:41.084Z,0.70
2023-02-27T10:43:07.859Z,0.70
2023-02-27T10:45:34.799Z,0.80
2023-02-27T10:48:01.842Z,0.70
2023-02-27T10:50:30.416Z,0.60
2023-02-27T10:52:59.466Z,0.60
2023-02-27T10:55:28.274Z,0.50
2023-02-27T10:57:58.087Z,0.60
2023-02-27T11:00:29.819Z,0.67
2023-02-27T11:02:57.454Z,0.60
2023-02-27T11:05:26.961Z,0.50
2023-02-27T11:07:55.638Z,0.60
2023-02-27T11:10:24.482Z,0.60
2023-02-27T11:13:01.476Z,0.73
2023-02-27T11:15:29.875Z,0.60
2023-02-27T11:18:20.457Z,0.50
2023-02-27T11:20:47.782Z,0.40
2023-02-27T11:23:16.940Z,0.73
2023-02-27T11:25:44.375Z,0.70
2023-02-27T11:28:22.318Z,0.70
2023-02-27T11:30:57.702Z,0.60
2023-02-27T11:33:26.033Z,0.80
2023-02-27T11:35:57.242Z,0.50
2023-02-27T11:38:28.427Z,0.77
2023-02-27T11:40:57.666Z,0.90
2023-02-27T11:43:27.920Z,0.70
2023-02-27T11:46:09.321Z,1.00
2023-02-27T11:48:48.616Z,0.90
2023-02-27T11:51:32.169Z,0.60
2023-02-27T11:54:15.054Z,0.70
2023-02-27T11:56:44.426Z,0.63
2023-02-27T11:59:28.435Z,0.70
2023-02-27T12:02:01.508Z,0.60
2023-02-27T12:04:33.649Z,0.50
2023-02-27T12:07:05.562Z,0.50
2023-02-27T12:09:39.374Z,0.50
2023-02-27T12:12:15.518Z,0.40
2023-02-27T12:14:48.575Z,0.97
2023-02-27T12:17:21.803Z,1.53
2023-02-27T12:19:58.100Z,0.73
2023-02-27T12:22:27.874Z,0.70
2023-02-27T12:25:00.579Z,0.63
2023-02-27T12:27:37.813Z,0.50
2023-02-27T12:30:15.883Z,0.50
2023-02-27T12:32:48.652Z,0.70
2023-02-27T12:35:20.975Z,0.70
2023-02-27T12:37:47.648Z,0.60
2023-02-27T12:40:15.666Z,0.70
2023-02-27T12:43:03.100Z,0.60
2023-02-27T12:45:52.383Z,0.63
2023-02-27T12:48:33.390Z,0.90
2023-02-27T12:51:26.801Z,1.00
2023-02-27T12:54:26.485Z,0.80
2023-02-27T12:57:04.620Z,0.63
2023-02-27T12:59:50.146Z,1.70
2023-02-27T13:02:35.218Z,1.60
2023-02-27T13:05:12.679Z,1.90
2023-02-27T13:07:47.974Z,0.80
2023-02-27T13:10:22.682Z,0.60
2023-02-27T13:12:53.845Z,0.70
2023-02-27T13:15:25.522Z,1.10
2023-02-27T13:17:57.031Z,0.70
2023-02-27T13:20:32.279Z,0.70
2023-02-27T13:23:10.851Z,0.60
2023-02-27T13:25:40.359Z,0.60
2023-02-27T13:28:12.644Z,0.60
2023-02-27T13:30:43.427Z,0.60
2023-02-27T13:33:21.014Z,0.63
2023-02-27T13:35:52.530Z,0.87
2023-02-27T13:38:31.619Z,0.60
2023-02-27T13:41:18.208Z,0.60
2023-02-27T13:43:52.119Z,0.50
2023-02-27T13:46:24.026Z,0.70
2023-02-27T13:48:51.942Z,0.60
2023-02-27T13:51:53.880Z,0.70
2023-02-27T13:54:25.137Z,0.70
2023-02-27T13:57:17.629Z,0.70
2023-02-27T13:59:52.474Z,0.87
2023-02-27T14:02:31.426Z,0.63
2023-02-27T14:05:03.719Z,0.80
2023-02-27T14:07:34.012Z,0.70
2023-02-27T14:10:03.789Z,0.83
2023-02-27T14:12:43.998Z,0.87
2023-02-27T14:15:45.110Z,1.17
2023-02-27T14:18:44.827Z,0.70
2023-02-27T14:21:12.721Z,0.80
2023-02-27T14:23:39.392Z,0.70
2023-02-27T14:26:15.690Z,1.10
2023-02-27T14:28:47.555Z,1.30
2023-02-27T14:31:21.832Z,0.90
2023-02-27T14:33:50.806Z,0.90
2023-02-27T14:36:22.521Z,0.90
2023-02-27T14:38:49.983Z,0.70
2023-02-27T14:41:33.209Z,0.70
2023-02-27T14:44:00.272Z,1.00
2023-02-27T14:46:30.557Z,1.00
2023-02-27T14:48:59.365Z,1.07
2023-02-27T14:51:27.893Z,1.00
2023-02-27T14:54:07.335Z,0.80
2023-02-27T14:56:34.502Z,1.10
2023-02-27T14:59:05.134Z,0.70
2023-02-27T15:01:35.767Z,0.97
2023-02-27T15:04:04.534Z,0.97
2023-02-27T15:06:36.420Z,1.00
2023-02-27T15:09:03.845Z,0.90
2023-02-27T15:11:30.918Z,0.87
2023-02-27T15:14:00.382Z,0.80
2023-02-27T15:16:36.531Z,0.90
2023-02-27T15:19:15.310Z,0.80
2023-02-27T15:21:47.002Z,1.73
2023-02-27T15:24:23.500Z,1.10
2023-02-27T15:26:53.893Z,0.67
2023-02-27T15:29:23.307Z,0.80
2023-02-27T15:31:50.952Z,0.80
2023-02-27T15:34:18.061Z,0.80
2023-02-27T15:36:50.440Z,0.70
2023-02-27T15:39:19.692Z,1.00
2023-02-27T15:41:48.402Z,0.73
2023-02-27T15:44:16.639Z,0.70
2023-02-27T15:46:44.419Z,1.00
2023-02-27T15:49:16.614Z,1.00
2023-02-27T15:51:43.245Z,1.03
2023-02-27T15:54:11.278Z,0.90
2023-02-27T15:56:38.891Z,0.90
2023-02-27T15:59:05.670Z,0.90
2023-02-27T16:01:33.150Z,1.00
2023-02-27T16:04:01.943Z,0.80
2023-02-27T16:06:32.155Z,0.70
2023-02-27T16:09:01.360Z,0.70
2023-02-27T16:11:33.164Z,0.77
2023-02-27T16:13:59.907Z,0.90
2023-02-27T16:16:30.269Z,0.70
2023-02-27T16:18:59.267Z,1.53
2023-02-27T16:21:27.136Z,1.40
2023-02-27T16:23:54.396Z,1.63
2023-02-27T16:26:31.210Z,1.33
2023-02-27T16:28:59.708Z,1.07
2023-02-27T16:31:29.000Z,1.50
2023-02-27T16:33:58.301Z,1.10
2023-02-27T16:36:26.911Z,1.10
2023-02-27T16:38:53.859Z,0.83
2023-02-27T16:41:22.173Z,0.93
2023-02-27T16:43:50.640Z,0.80
2023-02-27T16:46:18.839Z,1.00
2023-02-27T16:48:45.436Z,1.37
2023-02-27T16:51:15.718Z,1.70
2023-02-27T16:53:42.262Z,0.80
2023-02-27T16:56:10.546Z,0.90
2023-02-27T16:58:37.093Z,1.20
2023-02-27T17:01:05.377Z,1.93
2023-02-27T17:03:31.957Z,2.10
2023-02-27T17:05:58.491Z,2.90
2023-02-27T17:08:25.050Z,2.57
2023-02-27T17:10:51.561Z,1.80
2023-02-27T17:13:18.089Z,1.80
2023-02-27T17:15:44.681Z,1.70
2023-02-27T17:18:12.652Z,1.20
2023-02-27T17:20:39.181Z,1.40
2023-02-27T17:23:05.757Z,1.50
2023-02-27T17:25:32.269Z,1.47
2023-02-27T17:27:58.790Z,1.43
2023-02-27T17:30:25.656Z,1.90
2023-02-27T17:32:52.194Z,1.47
2023-02-27T17:35:20.115Z,1.40
2023-02-27T17:37:46.687Z,1.40
2023-02-27T17:40:13.690Z,1.50
2023-02-27T17:42:40.469Z,1.53
2023-02-27T17:45:08.268Z,1.30
2023-02-27T17:47:35.447Z,1.40
2023-02-27T17:50:02.170Z,1.17
2023-02-27T17:52:30.191Z,1.70
2023-02-27T17:54:56.698Z,1.90
2023-02-27T17:57:23.247Z,1.50
2023-02-27T17:59:49.792Z,1.20
2023-02-27T18:02:16.358Z,2.00
2023-02-27T18:04:42.931Z,1.30
2023-02-27T18:07:09.542Z,1.20
2023-02-27T18:09:37.440Z,0.90
2023-02-27T18:12:04.146Z,1.20
2023-02-27T18:14:30.715Z,1.67
2023-02-27T18:16:57.260Z,1.40
2023-02-27T18:19:23.853Z,2.20
2023-02-27T18:21:50.439Z,1.70
2023-02-27T18:24:17.266Z,1.80
2023-02-27T18:26:45.168Z,1.43
2023-02-27T18:29:12.326Z,1.73
2023-02-27T18:31:40.590Z,1.80
2023-02-27T18:34:07.618Z,1.70
2023-02-27T18:36:34.904Z,1.97
2023-02-27T18:39:01.733Z,2.30
2023-02-27T18:41:28.696Z,2.77
2023-02-27T18:43:56.661Z,4.23
2023-02-27T18:46:23.212Z,3.23
2023-02-27T18:48:50.051Z,2.00
2023-02-27T18:51:17.428Z,2.10
2023-02-27T18:53:46.944Z,3.10
2023-02-27T18:56:15.050Z,2.27
2023-02-27T18:58:41.788Z,2.07
2023-02-27T19:01:18.345Z,2.10
2023-02-27T19:03:44.897Z,2.10
2023-02-27T19:06:11.471Z,2.40
2023-02-27T19:08:38.015Z,2.77
2023-02-27T19:11:04.988Z,2.40
2023-02-27T19:13:31.566Z,2.23
2023-02-27T19:16:01.882Z,2.00
2023-02-27T19:18:29.841Z,1.90
2023-02-27T19:20:57.402Z,1.60
2023-02-27T19:23:23.997Z,3.33
2023-02-27T19:25:57.925Z,4.37
2023-02-27T19:28:24.492Z,3.87
2023-02-27T19:30:51.025Z,3.40
2023-02-27T19:33:17.775Z,2.27
2023-02-27T19:35:45.714Z,2.20
2023-02-27T19:38:12.614Z,2.40
2023-02-27T19:40:39.229Z,2.50
2023-02-27T19:43:05.797Z,2.20
2023-02-27T19:45:32.342Z,2.40
2023-02-27T19:47:59.260Z,5.10
2023-02-27T19:50:25.839Z,8.80
2023-02-27T19:52:53.716Z,5.07
2023-02-27T19:55:20.289Z,2.70
2023-02-27T19:57:46.862Z,2.10
2023-02-27T20:00:14.849Z,2.00
2023-02-27T20:02:42.024Z,3.03
2023-02-27T20:05:09.383Z,2.83
2023-02-27T20:07:35.930Z,3.37
2023-02-27T20:10:04.290Z,3.43
2023-02-27T20:12:30.818Z,2.80
2023-02-27T20:14:57.333Z,2.70
2023-02-27T20:17:23.885Z,2.33
2023-02-27T20:19:50.442Z,2.00
2023-02-27T20:22:17.034Z,1.90
2023-02-27T20:24:43.579Z,2.00
2023-02-27T20:27:11.879Z,2.00
2023-02-27T20:29:38.438Z,1.67
2023-02-27T20:32:05.132Z,1.70
2023-02-27T20:34:31.791Z,2.20
2023-02-27T20:36:58.300Z,2.50
2023-02-27T20:39:25.331Z,2.37
2023-02-27T20:41:51.883Z,3.20
2023-02-27T20:44:19.769Z,3.57
2023-02-27T20:46:48.151Z,2.93
2023-02-27T20:49:15.766Z,3.23
2023-02-27T20:51:43.563Z,2.80
2023-02-27T20:54:13.246Z,2.90
2023-02-27T20:56:40.953Z,3.10
2023-02-27T20:59:09.554Z,2.43
2023-02-27T21:01:38.537Z,3.07
2023-02-27T21:04:06.104Z,2.90
2023-02-27T21:06:32.819Z,2.33
2023-02-27T21:09:03.295Z,1.97
2023-02-27T21:11:31.153Z,1.77
2023-02-27T21:14:02.444Z,2.17
2023-02-27T21:16:28.992Z,2.27
2023-02-27T21:18:56.846Z,2.10
2023-02-27T21:21:25.276Z,1.90
2023-02-27T21:23:52.094Z,2.33
2023-02-27T21:26:20.694Z,2.47
2023-02-27T21:28:50.186Z,2.80
2023-02-27T21:31:18.291Z,2.97
2023-02-27T21:33:45.173Z,2.50
2023-02-27T21:36:13.258Z,1.90
2023-02-27T21:38:40.340Z,2.10
2023-02-27T21:41:09.388Z,1.80
2023-02-27T21:43:38.071Z,1.50
2023-02-27T21:46:05.126Z,1.50
2023-02-27T21:48:32.266Z,1.80
2023-02-27T21:50:59.122Z,1.70
2023-02-27T21:53:27.383Z,1.60
2023-02-27T21:55:53.913Z,2.10
2023-02-27T21:58:20.513Z,2.10
2023-02-27T22:00:47.069Z,1.90
2023-02-27T22:03:14.365Z,2.03
2023-02-27T22:05:40.957Z,1.93
2023-02-27T22:08:07.662Z,2.20
2023-02-27T22:10:36.503Z,2.40
2023-02-27T22:13:03.069Z,2.00
2023-02-27T22:15:29.591Z,2.07
2023-02-27T22:17:56.100Z,2.00
2023-02-27T22:20:22.630Z,2.10
2023-02-27T22:22:49.134Z,1.63
2023-02-27T22:25:15.704Z,1.67
2023-02-27T22:27:43.558Z,1.77
2023-02-27T22:30:11.381Z,1.50
2023-02-27T22:32:38.492Z,1.70
2023-02-27T22:35:06.254Z,1.97
2023-02-27T22:37:33.909Z,2.03
2023-02-27T22:40:00.409Z,1.83
2023-02-27T22:42:26.909Z,1.77
2023-02-27T22:44:54.813Z,3.07
2023-02-27T22:47:21.384Z,2.60
2023-02-27T22:49:50.177Z,2.27
2023-02-27T22:52:16.716Z,1.70
2023-02-27T22:54:43.259Z,1.80
2023-02-27T22:57:09.788Z,1.60
2023-02-27T22:59:36.445Z,1.20
2023-02-27T23:02:04.380Z,1.10
2023-02-27T23:04:30.867Z,1.03
2023-02-27T23:06:57.385Z,1.00
2023-02-27T23:09:25.430Z,1.40
2023-02-27T23:11:52.201Z,1.23
2023-02-27T23:14:19.343Z,1.20
2023-02-27T23:16:46.051Z,1.30
2023-02-27T23:19:15.954Z,1.30
2023-02-27T23:21:42.752Z,1.40
2023-02-27T23:24:10.958Z,1.43
2023-02-27T23:26:38.508Z,1.30
2023-02-27T23:29:06.070Z,1.13
2023-02-27T23:31:34.917Z,1.33
2023-02-27T23:34:02.356Z,1.53
2023-02-27T23:36:30.206Z,1.83
2023-02-27T23:38:58.886Z,1.60
2023-02-27T23:41:25.762Z,2.00
2023-02-27T23:43:52.872Z,2.00
2023-02-27T23:46:19.794Z,2.43
2023-02-27T23:48:46.702Z,2.77
2023-02-27T23:51:13.845Z,2.17
2023-02-27T23:53:42.612Z,2.30
2023-02-27T23:56:14.572Z,2.60
2023-02-27T23:58:41.103Z,2.10
